createdAt,value
2018-06-30T00:00:59.038Z,18.90
2018-06-30T00:03:03.048Z,18.80
2018-06-30T00:05:06.967Z,18.80
2018-06-30T00:09:14.480Z,18.70
2018-06-30T00:11:18.365Z,18.60
2018-06-30T00:13:22.314Z,18.60
2018-06-30T00:15:26.209Z,18.60
2018-06-30T00:17:29.984Z,18.50
2018-06-30T00:19:33.891Z,18.50
2018-06-30T00:21:37.701Z,18.50
2018-06-30T00:23:41.845Z,18.50
2018-06-30T00:25:45.670Z,18.50
2018-06-30T00:27:49.555Z,18.50
2018-06-30T00:29:53.341Z,18.40
2018-06-30T00:31:58.448Z,18.30
2018-06-30T00:34:02.235Z,18.30
2018-06-30T00:36:06.224Z,18.20
2018-06-30T00:38:10.488Z,18.10
2018-06-30T00:40:14.384Z,18.00
2018-06-30T00:42:18.531Z,18.00
2018-06-30T00:44:22.444Z,18.10
2018-06-30T00:46:26.219Z,18.00
2018-06-30T00:48:30.238Z,18.00
2018-06-30T00:50:33.983Z,17.90
2018-06-30T00:52:37.912Z,18.00
2018-06-30T00:54:41.736Z,18.00
2018-06-30T00:56:45.663Z,18.00
2018-06-30T00:58:49.497Z,17.80
2018-06-30T01:02:56.961Z,17.70
2018-06-30T01:05:05.313Z,17.70
2018-06-30T01:07:09.271Z,17.70
2018-06-30T01:09:13.088Z,17.70
2018-06-30T01:11:17.031Z,17.60
2018-06-30T01:13:20.829Z,17.70
2018-06-30T01:15:24.818Z,17.70
2018-06-30T01:17:28.615Z,17.80
2018-06-30T01:19:32.513Z,17.70
2018-06-30T01:21:36.365Z,17.70
2018-06-30T01:25:43.664Z,17.40
2018-06-30T01:27:47.604Z,17.40
2018-06-30T01:29:51.425Z,17.40
2018-06-30T01:31:55.361Z,17.40
2018-06-30T01:33:59.154Z,17.40
2018-06-30T01:36:03.063Z,17.40
2018-06-30T01:38:07.169Z,17.40
2018-06-30T01:40:11.130Z,17.30
2018-06-30T01:42:14.941Z,17.40
2018-06-30T01:44:18.874Z,17.30
2018-06-30T01:46:22.638Z,17.30
2018-06-30T01:48:26.557Z,17.30
2018-06-30T01:50:30.342Z,17.30
2018-06-30T01:52:34.231Z,17.20
2018-06-30T01:54:38.003Z,17.20
2018-06-30T01:56:42.078Z,17.10
2018-06-30T01:58:45.867Z,17.20
2018-06-30T02:00:49.759Z,17.10
2018-06-30T02:04:57.311Z,17.10
2018-06-30T02:07:01.200Z,17.20
2018-06-30T02:09:07.852Z,17.20
2018-06-30T02:11:11.887Z,17.00
2018-06-30T02:13:15.719Z,17.00
2018-06-30T02:15:19.624Z,16.90
2018-06-30T02:17:23.416Z,16.80
2018-06-30T02:19:27.355Z,16.80
2018-06-30T02:21:31.227Z,16.80
2018-06-30T02:23:35.137Z,16.80
2018-06-30T02:25:38.925Z,16.80
2018-06-30T02:27:42.871Z,16.80
2018-06-30T02:29:46.728Z,16.80
2018-06-30T02:31:50.640Z,16.70
2018-06-30T02:33:54.496Z,16.60
2018-06-30T02:35:58.416Z,16.70
2018-06-30T02:40:05.819Z,16.60
2018-06-30T02:42:09.628Z,16.70
2018-06-30T02:44:13.608Z,16.70
2018-06-30T02:46:17.377Z,16.60
2018-06-30T02:48:21.280Z,16.70
2018-06-30T02:50:25.123Z,16.60
2018-06-30T02:52:29.042Z,16.50
2018-06-30T02:54:32.883Z,16.50
2018-06-30T02:56:36.772Z,16.40
2018-06-30T02:58:40.823Z,16.40
2018-06-30T03:00:44.919Z,16.30
2018-06-30T03:02:49.385Z,16.30
2018-06-30T03:04:54.083Z,16.30
2018-06-30T03:06:58.339Z,16.30
2018-06-30T03:09:03.175Z,16.40
2018-06-30T03:11:07.541Z,16.30
2018-06-30T03:13:11.978Z,16.40
2018-06-30T03:15:16.231Z,16.40
2018-06-30T03:17:20.347Z,16.20
2018-06-30T03:19:24.707Z,16.10
2018-06-30T03:21:28.901Z,16.20
2018-06-30T03:23:32.922Z,16.30
2018-06-30T03:25:37.048Z,16.30
2018-06-30T03:27:41.044Z,16.30
2018-06-30T03:29:45.287Z,16.30
2018-06-30T03:31:49.379Z,16.10
2018-06-30T03:33:53.482Z,16.10
2018-06-30T03:35:57.472Z,16.00
2018-06-30T03:38:01.611Z,16.00
2018-06-30T03:40:05.583Z,16.10
2018-06-30T03:42:09.734Z,16.10
2018-06-30T03:44:13.699Z,16.10
2018-06-30T03:46:17.962Z,16.10
2018-06-30T03:48:22.192Z,16.00
2018-06-30T03:50:26.371Z,16.10
2018-06-30T03:52:30.377Z,16.10
2018-06-30T03:54:34.610Z,16.20
2018-06-30T03:56:38.882Z,16.10
2018-06-30T03:58:43.178Z,16.10
2018-06-30T04:00:47.339Z,16.00
2018-06-30T04:02:51.508Z,16.10
2018-06-30T04:04:55.536Z,16.00
2018-06-30T04:06:59.669Z,16.00
2018-06-30T04:09:03.993Z,16.10
2018-06-30T04:11:08.194Z,16.10
2018-06-30T04:13:12.163Z,16.10
2018-06-30T04:15:16.377Z,16.10
2018-06-30T04:17:20.796Z,16.10
2018-06-30T04:19:24.906Z,16.20
2018-06-30T04:21:28.830Z,16.20
2018-06-30T04:23:32.794Z,16.30
2018-06-30T04:25:36.630Z,16.30
2018-06-30T04:27:40.599Z,16.20
2018-06-30T04:29:44.457Z,16.30
2018-06-30T04:31:48.391Z,16.20
2018-06-30T04:33:52.205Z,16.30
2018-06-30T04:35:56.108Z,16.30
2018-06-30T04:37:59.884Z,16.40
2018-06-30T04:40:03.872Z,16.80
2018-06-30T04:44:11.158Z,17.00
2018-06-30T04:46:15.010Z,17.00
2018-06-30T04:48:19.042Z,16.80
2018-06-30T04:50:22.902Z,17.10
2018-06-30T04:52:26.841Z,17.10
2018-06-30T04:54:30.632Z,17.10
2018-06-30T04:56:34.599Z,17.30
2018-06-30T04:58:38.507Z,17.30
2018-06-30T05:00:42.417Z,17.40
2018-06-30T05:02:46.283Z,17.60
2018-06-30T05:04:50.328Z,17.90
2018-06-30T05:06:54.141Z,17.90
2018-06-30T05:08:58.036Z,17.50
2018-06-30T05:11:01.973Z,17.30
2018-06-30T05:13:06.856Z,17.60
2018-06-30T05:15:10.804Z,17.90
2018-06-30T05:17:14.729Z,18.00
2018-06-30T05:19:18.569Z,17.70
2018-06-30T05:21:22.505Z,17.90
2018-06-30T05:23:26.283Z,18.30
2018-06-30T05:25:30.259Z,18.60
2018-06-30T05:27:34.149Z,18.80
2018-06-30T05:29:38.121Z,18.70
2018-06-30T05:31:41.935Z,18.60
2018-06-30T05:33:45.910Z,18.70
2018-06-30T05:35:49.888Z,18.90
2018-06-30T05:37:53.812Z,18.90
2018-06-30T05:39:57.641Z,19.10
2018-06-30T05:42:01.742Z,19.20
2018-06-30T05:44:05.583Z,19.20
2018-06-30T05:46:09.537Z,19.30
2018-06-30T05:50:16.858Z,19.70
2018-06-30T05:52:20.673Z,19.40
2018-06-30T05:54:24.646Z,19.30
2018-06-30T05:56:28.519Z,19.70
2018-06-30T05:58:32.550Z,20.10
2018-06-30T06:00:36.340Z,20.10
2018-06-30T06:02:40.305Z,20.30
2018-06-30T06:04:44.090Z,20.20
2018-06-30T06:06:48.076Z,20.40
2018-06-30T06:08:52.027Z,19.90
2018-06-30T06:10:56.019Z,19.70
2018-06-30T06:12:59.854Z,20.00
2018-06-30T06:15:03.835Z,20.70
2018-06-30T06:17:07.671Z,20.60
2018-06-30T06:19:11.587Z,20.70
2018-06-30T06:21:15.631Z,20.70
2018-06-30T06:23:19.519Z,20.60
2018-06-30T06:25:23.420Z,20.90
2018-06-30T06:27:27.429Z,20.70
2018-06-30T06:29:31.250Z,20.80
2018-06-30T06:31:35.150Z,21.30
2018-06-30T06:33:39.049Z,22.20
2018-06-30T06:35:42.951Z,21.80
2018-06-30T06:37:46.813Z,21.70
2018-06-30T06:39:50.735Z,21.80
2018-06-30T06:41:54.618Z,21.80
2018-06-30T06:43:58.538Z,21.90
2018-06-30T06:46:02.371Z,22.30
2018-06-30T06:48:06.474Z,22.70
2018-06-30T06:50:10.316Z,22.70
2018-06-30T06:52:14.267Z,22.60
2018-06-30T06:54:18.095Z,22.40
2018-06-30T06:56:22.091Z,22.20
2018-06-30T06:58:26.031Z,22.70
2018-06-30T07:00:29.967Z,23.10
2018-06-30T07:02:33.796Z,22.90
2018-06-30T07:04:37.804Z,22.90
2018-06-30T07:06:41.640Z,22.90
2018-06-30T07:08:45.601Z,23.20
2018-06-30T07:10:49.481Z,23.80
2018-06-30T07:12:53.543Z,23.50
2018-06-30T07:14:57.345Z,23.60
2018-06-30T07:17:01.254Z,23.90
2018-06-30T07:19:05.070Z,24.70
2018-06-30T07:21:09.011Z,24.70
2018-06-30T07:23:12.888Z,24.30
2018-06-30T07:25:16.807Z,24.30
2018-06-30T07:27:20.743Z,24.20
2018-06-30T07:29:24.697Z,23.90
2018-06-30T07:31:28.563Z,23.80
2018-06-30T07:33:32.461Z,24.30
2018-06-30T07:35:36.251Z,24.80
2018-06-30T07:37:40.236Z,24.80
2018-06-30T07:39:44.119Z,24.30
2018-06-30T07:41:48.076Z,24.70
2018-06-30T07:43:51.876Z,25.20
2018-06-30T07:45:55.778Z,25.20
2018-06-30T07:47:59.618Z,25.30
2018-06-30T07:50:03.573Z,26.30
2018-06-30T07:52:07.459Z,26.10
2018-06-30T07:54:11.405Z,26.10
2018-06-30T07:56:15.286Z,26.20
2018-06-30T07:58:19.254Z,25.70
2018-06-30T08:00:23.144Z,26.30
2018-06-30T08:02:27.048Z,26.10
2018-06-30T08:04:30.836Z,26.60
2018-06-30T08:06:34.838Z,26.10
2018-06-30T08:08:38.635Z,27.00
2018-06-30T08:10:42.594Z,27.10
2018-06-30T08:12:46.374Z,27.00
2018-06-30T08:14:50.318Z,27.20
2018-06-30T08:16:54.121Z,27.80
2018-06-30T08:18:58.106Z,26.10
2018-06-30T08:21:02.180Z,26.70
2018-06-30T08:23:06.228Z,27.60
2018-06-30T08:25:10.090Z,27.00
2018-06-30T08:27:14.044Z,27.50
2018-06-30T08:29:17.845Z,27.20
2018-06-30T08:31:21.832Z,28.40
2018-06-30T08:33:25.661Z,27.90
2018-06-30T08:35:29.674Z,27.60
2018-06-30T08:37:33.502Z,28.00
2018-06-30T08:41:41.006Z,27.90
2018-06-30T08:43:44.885Z,27.30
2018-06-30T08:45:48.736Z,27.30
2018-06-30T08:47:52.679Z,27.00
2018-06-30T08:49:56.496Z,27.80
2018-06-30T08:52:00.455Z,28.20
2018-06-30T08:54:04.323Z,28.30
2018-06-30T08:56:08.255Z,29.20
2018-06-30T08:58:12.036Z,29.30
2018-06-30T09:00:15.978Z,29.50
2018-06-30T09:02:19.832Z,29.90
2018-06-30T09:04:23.703Z,29.20
2018-06-30T09:06:27.534Z,29.70
2018-06-30T09:08:31.439Z,29.40
2018-06-30T09:10:35.283Z,29.60
2018-06-30T09:12:39.185Z,30.10
2018-06-30T09:14:42.996Z,29.80
2018-06-30T09:16:46.908Z,29.30
2018-06-30T09:18:50.719Z,29.50
2018-06-30T09:20:54.716Z,29.90
2018-06-30T09:22:58.580Z,30.30
2018-06-30T09:25:02.541Z,29.70
2018-06-30T09:27:06.410Z,29.70
2018-06-30T09:29:10.507Z,28.70
2018-06-30T09:31:14.347Z,28.10
2018-06-30T09:33:18.235Z,28.90
2018-06-30T09:35:22.096Z,29.30
2018-06-30T09:37:26.030Z,29.80
2018-06-30T09:39:29.827Z,29.50
2018-06-30T09:41:33.784Z,28.90
2018-06-30T09:43:37.580Z,29.40
2018-06-30T09:45:41.515Z,28.90
2018-06-30T09:47:45.313Z,30.00
2018-06-30T09:49:49.215Z,30.30
2018-06-30T09:51:53.101Z,29.80
2018-06-30T09:53:57.031Z,28.40
2018-06-30T09:56:00.932Z,28.00
2018-06-30T09:58:04.880Z,29.30
2018-06-30T10:00:09.516Z,29.80
2018-06-30T10:02:13.410Z,29.70
2018-06-30T10:04:17.250Z,30.00
2018-06-30T10:06:21.168Z,29.50
2018-06-30T10:08:24.984Z,30.00
2018-06-30T10:10:28.904Z,30.60
2018-06-30T10:12:32.705Z,29.40
2018-06-30T10:14:36.651Z,29.00
2018-06-30T10:16:40.473Z,29.00
2018-06-30T10:18:44.388Z,29.50
2018-06-30T10:20:48.317Z,28.90
2018-06-30T10:22:52.199Z,28.60
2018-06-30T10:24:56.020Z,27.90
2018-06-30T10:27:00.033Z,28.10
2018-06-30T10:29:04.001Z,28.80
2018-06-30T10:31:07.979Z,28.50
2018-06-30T10:33:12.189Z,28.30
2018-06-30T10:35:16.237Z,28.90
2018-06-30T10:37:20.044Z,28.80
2018-06-30T10:39:24.031Z,29.40
2018-06-30T10:41:27.859Z,29.50
2018-06-30T10:43:31.777Z,29.60
2018-06-30T10:45:36.768Z,29.80
2018-06-30T10:47:40.696Z,29.50
2018-06-30T10:49:44.512Z,29.00
2018-06-30T10:51:48.592Z,28.80
2018-06-30T10:53:52.429Z,29.60
2018-06-30T10:55:56.366Z,28.90
2018-06-30T10:58:00.150Z,28.30
2018-06-30T11:00:04.360Z,28.70
2018-06-30T11:02:08.245Z,29.70
2018-06-30T11:04:12.212Z,29.60
2018-06-30T11:06:15.993Z,29.40
2018-06-30T11:08:20.124Z,28.80
2018-06-30T11:10:23.952Z,28.20
2018-06-30T11:12:27.833Z,28.00
2018-06-30T11:14:31.694Z,28.60
2018-06-30T11:16:35.838Z,29.10
2018-06-30T11:18:39.657Z,29.10
2018-06-30T11:20:43.568Z,28.70
2018-06-30T11:22:48.471Z,28.70
2018-06-30T11:24:52.385Z,28.50
2018-06-30T11:26:56.181Z,28.70
2018-06-30T11:29:00.148Z,29.00
2018-06-30T11:31:04.006Z,28.70
2018-06-30T11:33:07.983Z,29.00
2018-06-30T11:35:11.889Z,28.20
2018-06-30T11:37:15.913Z,28.10
2018-06-30T11:39:19.787Z,28.30
2018-06-30T11:41:23.741Z,28.50
2018-06-30T11:43:27.763Z,28.30
2018-06-30T11:45:31.703Z,28.70
2018-06-30T11:47:35.582Z,27.90
2018-06-30T11:49:39.524Z,28.40
2018-06-30T11:51:43.489Z,28.80
2018-06-30T11:53:47.559Z,28.30
2018-06-30T11:55:51.343Z,28.10
2018-06-30T11:57:55.279Z,28.20
2018-06-30T11:59:59.134Z,28.30
2018-06-30T12:02:03.153Z,28.40
2018-06-30T12:04:06.950Z,28.30
2018-06-30T12:06:10.892Z,28.50
2018-06-30T12:08:14.759Z,28.50
2018-06-30T12:10:18.764Z,28.30
2018-06-30T12:12:22.635Z,28.60
2018-06-30T12:16:30.007Z,28.80
2018-06-30T12:18:34.005Z,28.50
2018-06-30T12:20:37.791Z,28.50
2018-06-30T12:22:41.860Z,28.80
2018-06-30T12:24:45.959Z,29.00
2018-06-30T12:26:49.959Z,29.00
2018-06-30T12:28:53.724Z,29.00
2018-06-30T12:30:57.646Z,28.40
2018-06-30T12:33:01.463Z,28.30
2018-06-30T12:35:05.440Z,28.50
2018-06-30T12:37:09.252Z,28.60
2018-06-30T12:39:13.335Z,28.40
2018-06-30T12:41:17.230Z,28.30
2018-06-30T12:43:21.267Z,28.30
2018-06-30T12:45:25.162Z,28.60
2018-06-30T12:47:29.053Z,28.60
2018-06-30T12:49:32.883Z,29.00
2018-06-30T12:51:36.835Z,29.20
2018-06-30T12:53:40.632Z,28.70
2018-06-30T12:55:44.590Z,28.70
2018-06-30T12:57:48.395Z,28.60
2018-06-30T12:59:52.403Z,28.70
2018-06-30T13:01:56.219Z,28.30
2018-06-30T13:04:00.186Z,28.50
2018-06-30T13:06:04.033Z,28.50
2018-06-30T13:08:08.044Z,28.50
2018-06-30T13:10:11.864Z,28.50
2018-06-30T13:12:15.840Z,28.30
2018-06-30T13:14:19.854Z,28.00
2018-06-30T13:16:23.844Z,28.10
2018-06-30T13:18:27.752Z,28.50
2018-06-30T13:20:32.379Z,28.50
2018-06-30T13:22:36.158Z,28.50
2018-06-30T13:24:40.072Z,28.30
2018-06-30T13:26:43.956Z,28.30
2018-06-30T13:28:47.902Z,28.20
2018-06-30T13:30:51.666Z,28.10
2018-06-30T13:32:55.555Z,28.10
2018-06-30T13:34:59.556Z,28.00
2018-06-30T13:37:03.468Z,28.00
2018-06-30T13:39:11.300Z,28.00
2018-06-30T13:41:15.319Z,27.80
2018-06-30T13:43:19.241Z,28.20
2018-06-30T13:45:23.135Z,28.20
2018-06-30T13:47:26.976Z,28.10
2018-06-30T13:49:30.960Z,28.00
2018-06-30T13:51:35.113Z,28.20
2018-06-30T13:57:54.470Z,28.10
2018-06-30T14:03:10.292Z,28.00
2018-06-30T14:05:14.159Z,28.10
2018-06-30T14:07:18.141Z,28.40
2018-06-30T14:09:22.049Z,28.30
2018-06-30T14:11:26.304Z,28.20
2018-06-30T14:13:30.231Z,28.00
2018-06-30T14:15:34.234Z,28.00
2018-06-30T14:17:38.102Z,28.30
2018-06-30T14:19:42.144Z,28.40
2018-06-30T14:21:46.255Z,28.50
2018-06-30T14:23:50.365Z,28.50
2018-06-30T14:25:54.275Z,28.40
2018-06-30T14:27:58.308Z,28.20
2018-06-30T14:32:06.953Z,28.20
2018-06-30T14:34:11.123Z,28.40
2018-06-30T14:36:15.547Z,28.40
2018-06-30T14:38:19.862Z,28.40
2018-06-30T14:40:24.714Z,28.50
2018-06-30T14:42:28.780Z,28.20
2018-06-30T14:44:32.978Z,28.20
2018-06-30T14:46:37.171Z,28.20
2018-06-30T14:48:41.121Z,28.20
2018-06-30T14:50:46.411Z,28.10
2018-06-30T14:52:50.384Z,28.10
2018-06-30T14:54:54.190Z,28.00
2018-06-30T14:56:58.175Z,28.20
2018-06-30T14:59:02.188Z,28.30
2018-06-30T15:01:06.182Z,28.40
2018-06-30T15:03:10.066Z,28.20
2018-06-30T15:05:13.970Z,28.20
2018-06-30T15:07:17.977Z,28.30
2018-06-30T15:09:22.031Z,28.30
2018-06-30T15:11:25.956Z,28.20
2018-06-30T15:13:30.007Z,28.20
2018-06-30T15:15:34.089Z,28.10
2018-06-30T15:17:38.252Z,28.30
2018-06-30T15:19:42.088Z,28.60
2018-06-30T15:21:46.410Z,28.50
2018-06-30T15:23:50.215Z,28.50
2018-06-30T15:25:54.235Z,28.40
2018-06-30T15:27:58.050Z,28.20
2018-06-30T15:30:02.990Z,28.20
2018-06-30T15:32:07.410Z,28.10
2018-06-30T15:34:11.399Z,28.20
2018-06-30T15:36:15.206Z,28.20
2018-06-30T15:38:19.118Z,28.20
2018-06-30T15:40:22.891Z,28.30
2018-06-30T15:42:27.018Z,28.40
2018-06-30T15:44:31.107Z,28.40
2018-06-30T15:46:35.061Z,28.10
2018-06-30T15:48:38.931Z,28.20
2018-06-30T15:50:43.103Z,28.10
2018-06-30T15:52:46.993Z,28.20
2018-06-30T15:54:51.033Z,28.30
2018-06-30T15:56:54.874Z,28.20
2018-06-30T15:58:59.340Z,28.30
2018-06-30T16:01:03.268Z,28.20
2018-06-30T16:03:07.189Z,28.20
2018-06-30T16:05:10.984Z,28.20
2018-06-30T16:07:15.150Z,28.10
2018-06-30T16:09:19.102Z,28.00
2018-06-30T16:11:23.222Z,28.00
2018-06-30T16:13:27.116Z,28.20
2018-06-30T16:15:31.095Z,28.20
2018-06-30T16:17:34.932Z,28.20
2018-06-30T16:19:40.132Z,28.20
2018-06-30T16:21:44.072Z,28.10
2018-06-30T16:23:48.010Z,28.00
2018-06-30T16:25:51.946Z,28.00
2018-06-30T16:27:55.825Z,27.90
2018-06-30T16:29:59.801Z,28.00
2018-06-30T16:32:03.641Z,27.90
2018-06-30T16:34:07.654Z,27.90
2018-06-30T16:36:11.448Z,28.00
2018-06-30T16:38:15.318Z,28.00
2018-06-30T16:40:19.091Z,27.80
2018-06-30T16:42:23.057Z,27.80
2018-06-30T16:44:26.983Z,27.70
2018-06-30T16:46:30.886Z,27.80
2018-06-30T16:48:34.711Z,27.80
2018-06-30T16:50:38.642Z,27.80
2018-06-30T16:52:42.533Z,27.80
2018-06-30T16:54:46.466Z,27.90
2018-06-30T16:56:50.276Z,27.80
2018-06-30T16:58:54.262Z,27.70
2018-06-30T17:00:58.066Z,27.80
2018-06-30T17:03:01.985Z,27.70
2018-06-30T17:05:05.947Z,27.70
2018-06-30T17:07:09.852Z,27.60
2018-06-30T17:09:14.992Z,27.50
2018-06-30T17:11:18.910Z,27.50
2018-06-30T17:13:22.694Z,27.60
2018-06-30T17:15:26.608Z,27.60
2018-06-30T17:17:30.503Z,27.60
2018-06-30T17:19:34.399Z,27.40
2018-06-30T17:21:38.200Z,27.40
2018-06-30T17:23:42.084Z,27.30
2018-06-30T17:25:45.967Z,27.40
2018-06-30T17:27:49.804Z,27.40
2018-06-30T17:29:53.606Z,27.30
2018-06-30T17:31:57.501Z,27.20
2018-06-30T17:34:01.290Z,27.20
2018-06-30T17:38:08.703Z,27.00
2018-06-30T17:40:12.780Z,27.00
2018-06-30T17:42:16.629Z,27.00
2018-06-30T17:44:20.593Z,27.00
2018-06-30T17:46:24.357Z,27.00
2018-06-30T17:48:28.254Z,27.00
2018-06-30T17:50:32.095Z,26.90
2018-06-30T17:52:36.023Z,26.90
2018-06-30T17:54:39.853Z,26.80
2018-06-30T17:56:43.762Z,26.90
2018-06-30T17:58:47.522Z,26.80
2018-06-30T18:00:51.511Z,26.70
2018-06-30T18:02:55.337Z,26.70
2018-06-30T18:04:59.259Z,26.60
2018-06-30T18:07:03.044Z,26.60
2018-06-30T18:09:09.864Z,26.50
2018-06-30T18:11:13.766Z,26.50
2018-06-30T18:13:17.536Z,26.50
2018-06-30T18:15:21.628Z,26.40
2018-06-30T18:17:25.439Z,26.30
2018-06-30T18:19:29.368Z,26.30
2018-06-30T18:21:33.303Z,26.20
2018-06-30T18:23:37.432Z,26.20
2018-06-30T18:25:41.261Z,26.20
2018-06-30T18:27:45.272Z,26.10
2018-06-30T18:29:49.084Z,26.10
2018-06-30T18:31:53.098Z,26.10
2018-06-30T18:33:56.911Z,26.10
2018-06-30T18:36:00.855Z,26.00
2018-06-30T18:38:04.791Z,25.90
2018-06-30T18:40:08.823Z,25.90
2018-06-30T18:42:12.646Z,25.80
2018-06-30T18:44:16.614Z,25.80
2018-06-30T18:46:20.492Z,25.80
2018-06-30T18:48:24.485Z,25.70
2018-06-30T18:50:28.301Z,25.70
2018-06-30T18:52:32.276Z,25.60
2018-06-30T18:54:36.100Z,25.50
2018-06-30T18:56:39.972Z,25.50
2018-06-30T18:58:43.787Z,25.50
2018-06-30T19:00:47.703Z,25.40
2018-06-30T19:02:51.539Z,25.40
2018-06-30T19:04:55.590Z,25.30
2018-06-30T19:06:59.407Z,25.30
2018-06-30T19:09:04.122Z,25.20
2018-06-30T19:11:07.900Z,25.10
2018-06-30T19:13:11.873Z,25.10
2018-06-30T19:15:15.773Z,25.10
2018-06-30T19:17:19.728Z,25.00
2018-06-30T19:19:23.554Z,25.00
2018-06-30T19:21:27.542Z,24.90
2018-06-30T19:23:31.453Z,24.90
2018-06-30T19:25:35.379Z,24.80
2018-06-30T19:27:39.195Z,24.80
2018-06-30T19:29:43.251Z,24.80
2018-06-30T19:31:47.104Z,24.70
2018-06-30T19:33:51.092Z,24.70
2018-06-30T19:35:54.929Z,24.60
2018-06-30T19:37:58.848Z,24.50
2018-06-30T19:40:02.830Z,24.50
2018-06-30T19:42:06.862Z,24.50
2018-06-30T19:44:11.228Z,24.40
2018-06-30T19:46:15.149Z,24.30
2018-06-30T19:48:18.956Z,24.30
2018-06-30T19:50:22.863Z,24.20
2018-06-30T19:52:26.641Z,24.20
2018-06-30T19:54:30.611Z,24.10
2018-06-30T19:56:34.402Z,24.00
2018-06-30T19:58:38.302Z,23.90
2018-06-30T20:00:42.076Z,23.90
2018-06-30T20:02:46.092Z,23.80
2018-06-30T20:04:50.137Z,23.80
2018-06-30T20:06:54.605Z,23.70
2018-06-30T20:08:58.757Z,23.70
2018-06-30T20:11:03.024Z,23.60
2018-06-30T20:13:07.151Z,23.50
2018-06-30T20:15:11.414Z,23.50
2018-06-30T20:17:15.537Z,23.40
2018-06-30T20:19:19.944Z,23.40
2018-06-30T20:21:24.226Z,23.30
2018-06-30T20:23:28.386Z,23.30
2018-06-30T20:25:32.553Z,23.20
2018-06-30T20:27:36.933Z,23.20
2018-06-30T20:29:40.988Z,23.20
2018-06-30T20:31:45.251Z,23.10
2018-06-30T20:33:49.431Z,23.10
2018-06-30T20:35:53.578Z,23.10
2018-06-30T20:37:57.904Z,23.00
2018-06-30T20:40:02.294Z,23.00
2018-06-30T20:42:06.589Z,23.00
2018-06-30T20:44:10.731Z,22.90
2018-06-30T20:46:14.795Z,22.90
2018-06-30T20:48:19.113Z,22.90
2018-06-30T20:50:23.145Z,22.90
2018-06-30T20:52:27.243Z,22.80
2018-06-30T20:54:31.309Z,22.70
2018-06-30T20:56:35.611Z,22.70
2018-06-30T20:58:39.670Z,22.70
2018-06-30T21:00:43.895Z,22.70
2018-06-30T21:02:47.902Z,22.60
2018-06-30T21:04:51.975Z,22.50
2018-06-30T21:06:56.221Z,22.40
2018-06-30T21:09:00.337Z,22.40
2018-06-30T21:11:04.312Z,22.40
2018-06-30T21:13:08.851Z,22.30
2018-06-30T21:15:13.070Z,22.30
2018-06-30T21:17:17.175Z,22.20
2018-06-30T21:19:21.188Z,22.20
2018-06-30T21:21:25.264Z,22.10
2018-06-30T21:23:29.263Z,22.10
2018-06-30T21:25:33.616Z,22.10
2018-06-30T21:27:37.587Z,22.00
2018-06-30T21:29:41.994Z,21.90
2018-06-30T21:31:46.300Z,21.90
2018-06-30T21:33:50.502Z,21.80
2018-06-30T21:35:54.754Z,21.80
2018-06-30T21:37:58.834Z,21.70
2018-06-30T21:40:02.961Z,21.70
2018-06-30T21:42:07.101Z,21.60
2018-06-30T21:44:11.137Z,21.60
2018-06-30T21:46:15.294Z,21.60
2018-06-30T21:48:19.354Z,21.60
2018-06-30T21:50:23.522Z,21.50
2018-06-30T21:52:27.629Z,21.40
2018-06-30T21:54:31.885Z,21.40
2018-06-30T21:56:35.849Z,21.40
2018-06-30T21:58:40.100Z,21.30
2018-06-30T22:00:50.563Z,21.20
2018-06-30T22:02:54.916Z,21.20
2018-06-30T22:04:58.995Z,21.20
2018-06-30T22:07:03.394Z,21.20
2018-06-30T22:09:09.028Z,21.10
2018-06-30T22:11:13.322Z,21.10
2018-06-30T22:13:17.703Z,21.10
2018-06-30T22:15:21.855Z,21.00
2018-06-30T22:17:26.004Z,21.00
2018-06-30T22:19:30.220Z,20.80
2018-06-30T22:21:34.510Z,20.80
2018-06-30T22:23:38.804Z,20.80
2018-06-30T22:25:42.603Z,20.70
2018-06-30T22:27:46.585Z,20.70
2018-06-30T22:29:50.414Z,20.60
2018-06-30T22:31:54.443Z,20.60
2018-06-30T22:33:58.450Z,20.70
2018-06-30T22:36:03.545Z,20.70
2018-06-30T22:38:07.622Z,20.60
2018-06-30T22:40:18.478Z,20.50
2018-06-30T22:42:22.390Z,20.60
2018-06-30T22:44:26.377Z,20.60
2018-06-30T22:46:30.264Z,20.50
2018-06-30T22:48:34.057Z,20.50
2018-06-30T22:50:37.957Z,20.50
2018-06-30T22:52:41.790Z,20.50
2018-06-30T22:54:45.807Z,20.50
2018-06-30T22:56:49.587Z,20.40
2018-06-30T22:58:53.723Z,20.40
2018-06-30T23:00:57.731Z,20.30
2018-06-30T23:03:02.985Z,20.30
2018-06-30T23:05:07.932Z,20.20
2018-06-30T23:07:12.015Z,20.20
2018-06-30T23:09:16.329Z,20.20
2018-06-30T23:11:20.741Z,20.20
2018-06-30T23:13:24.954Z,20.10
2018-06-30T23:15:29.338Z,20.10
2018-06-30T23:17:34.559Z,20.00
2018-06-30T23:19:38.705Z,20.00
2018-06-30T23:21:42.712Z,20.00
2018-06-30T23:23:46.796Z,19.90
2018-06-30T23:25:51.064Z,19.80
2018-06-30T23:27:55.749Z,19.80
2018-06-30T23:29:59.720Z,19.80
2018-06-30T23:32:04.028Z,19.80
2018-06-30T23:34:08.084Z,19.80
2018-06-30T23:36:12.319Z,19.80
2018-06-30T23:38:16.282Z,19.70
2018-06-30T23:40:20.609Z,19.60
2018-06-30T23:42:24.864Z,19.70
2018-06-30T23:44:29.035Z,19.60
2018-06-30T23:46:33.260Z,19.50
2018-06-30T23:48:37.448Z,19.50
2018-06-30T23:50:41.461Z,19.40
2018-06-30T23:52:45.716Z,19.30
2018-06-30T23:54:50.058Z,19.20
2018-06-30T23:56:54.326Z,19.10
2018-06-30T23:58:58.446Z,19.00
